Aviation Digital Data Service (ADDS)

Output produced by METARs form (0252 UTC 27 August 2016)
found at http://www.aviationweather.gov/adds/metars/
 
KDFW 270128Z 2701/2806 13008KT P6SM FEW050 BKN250 
     FM271800 12007KT P6SM VCSH BKN050 
     FM280000 11008KT P6SM SCT050 BKN100